Time;durP1;ratioP1;P1;durP2;ratioP2;P2;SDS_P1;SDS_P2;PMS_P1;PMS_P2;Temp;Humidity;BMP_temperature;BMP_pressure;BME280_temperature;BME280_humidity;BME280_pressure;Samples;Min_cycle;Max_cycle;Signal;HPM_P1;HPM_P2
2020/12/28 00:01:50;;;;;;;0.43;0.40;;;5.70;99.90;;;;;;4133422;28;20033;-70
2020/12/28 00:03:51;;;;;;;0.73;0.60;;;5.70;99.90;;;;;;4135622;28;20434;-70
2020/12/28 00:05:51;;;;;;;0.40;0.40;;;5.70;99.90;;;;;;4141256;28;20037;-70
2020/12/28 00:07:53;;;;;;;0.68;0.50;;;5.60;99.90;;;;;;4135229;28;20026;-70
2020/12/28 00:09:53;;;;;;;1.15;0.40;;;5.60;99.90;;;;;;4136401;28;20042;-70
2020/12/28 00:11:55;;;;;;;1.38;0.65;;;5.60;99.90;;;;;;4147766;28;20033;-70
2020/12/28 00:13:56;;;;;;;1.70;0.47;;;5.60;99.90;;;;;;4133578;28;20053;-70
2020/12/28 00:15:57;;;;;;;0.43;0.40;;;5.60;99.90;;;;;;4148041;28;20045;-70
2020/12/28 00:18:00;;;;;;;0.50;0.50;;;5.60;99.90;;;;;;4135164;28;20030;-70
2020/12/28 00:20:00;;;;;;;0.63;0.43;;;5.60;99.90;;;;;;4135024;28;20576;-70
2020/12/28 00:22:01;;;;;;;0.70;0.40;;;5.50;99.90;;;;;;4135631;28;20030;-70
2020/12/28 00:24:02;;;;;;;0.77;0.60;;;5.50;99.90;;;;;;4135734;28;20464;-70
2020/12/28 00:26:03;;;;;;;0.38;0.38;;;5.60;99.90;;;;;;4135608;28;20041;-70
2020/12/28 00:28:03;;;;;;;0.82;0.40;;;5.60;99.90;;;;;;4135686;28;20414;-70
2020/12/28 00:30:06;;;;;;;0.80;0.45;;;5.60;99.90;;;;;;4137842;28;20042;-70
2020/12/28 00:32:06;;;;;;;1.17;0.67;;;5.50;99.90;;;;;;4134294;28;20113;-70
2020/12/28 00:34:07;;;;;;;0.40;0.28;;;5.60;99.90;;;;;;4137816;28;20482;-70
2020/12/28 00:36:08;;;;;;;0.47;0.30;;;5.50;99.90;;;;;;4134200;28;20596;-70
2020/12/28 00:38:08;;;;;;;1.67;0.60;;;5.60;99.90;;;;;;4137378;28;20030;-70
2020/12/28 00:40:09;;;;;;;1.08;0.70;;;5.60;99.90;;;;;;4136164;28;20125;-70
2020/12/28 00:42:14;;;;;;;1.40;0.75;;;5.50;99.90;;;;;;4135563;28;20037;-70
2020/12/28 00:44:15;;;;;;;1.10;0.68;;;5.50;99.90;;;;;;4131512;28;20045;-70
2020/12/28 00:46:15;;;;;;;2.90;0.60;;;5.60;99.90;;;;;;4135047;28;20030;-70
2020/12/28 00:48:16;;;;;;;1.15;0.60;;;5.60;99.90;;;;;;4135695;28;20031;-70
2020/12/28 00:50:17;;;;;;;1.25;0.60;;;5.60;99.90;;;;;;4145185;28;20029;-70
2020/12/28 00:52:18;;;;;;;0.93;0.65;;;5.50;99.90;;;;;;4126022;28;20050;-70
2020/12/28 00:54:18;;;;;;;0.77;0.47;;;5.50;99.90;;;;;;4132874;28;20084;-70
2020/12/28 00:56:19;;;;;;;1.17;0.60;;;5.50;99.90;;;;;;4134541;28;21599;-70
2020/12/28 00:58:22;;;;;;;0.50;0.40;;;5.40;99.90;;;;;;4137526;28;20045;-70
2020/12/28 01:00:23;;;;;;;0.60;0.47;;;5.40;99.90;;;;;;4132463;28;20030;-70
2020/12/28 01:02:23;;;;;;;0.93;0.50;;;5.40;99.90;;;;;;4136924;28;20339;-70
2020/12/28 01:04:25;;;;;;;0.60;0.43;;;5.40;99.90;;;;;;4141710;28;20703;-70
2020/12/28 01:06:25;;;;;;;1.25;0.20;;;5.40;99.90;;;;;;4139118;28;20042;-70
2020/12/28 01:08:26;;;;;;;0.73;0.40;;;5.40;99.90;;;;;;4135980;28;20112;-70
2020/12/28 01:10:26;;;;;;;0.95;0.52;;;5.30;99.90;;;;;;4133326;28;22666;-70
2020/12/28 01:12:27;;;;;;;0.52;0.32;;;5.30;99.90;;;;;;4134763;28;20056;-70
2020/12/28 01:14:28;;;;;;;0.40;0.40;;;5.30;99.90;;;;;;4133231;28;20125;-70
2020/12/28 01:16:28;;;;;;;0.52;0.50;;;5.30;99.90;;;;;;4134984;28;20026;-70
2020/12/28 01:18:29;;;;;;;0.95;0.50;;;5.30;99.90;;;;;;4135676;28;20042;-70
2020/12/28 01:20:30;;;;;;;0.93;0.47;;;5.30;99.90;;;;;;4129783;28;20045;-70
2020/12/28 01:22:30;;;;;;;2.97;0.50;;;5.30;99.90;;;;;;4134216;28;20066;-70
2020/12/28 01:24:31;;;;;;;1.20;0.52;;;5.30;99.90;;;;;;4132372;28;20524;-70
2020/12/28 01:26:31;;;;;;;0.52;0.35;;;5.30;99.90;;;;;;4134356;28;20052;-70
2020/12/28 01:28:32;;;;;;;0.50;0.38;;;5.30;99.90;;;;;;4135010;28;20045;-70
2020/12/28 01:30:34;;;;;;;0.45;0.30;;;5.30;99.90;;;;;;4133883;28;20030;-70
2020/12/28 01:32:34;;;;;;;0.43;0.40;;;5.30;99.90;;;;;;4129884;28;20041;-70
2020/12/28 01:34:35;;;;;;;1.15;0.50;;;5.30;99.90;;;;;;4136026;28;20121;-70
2020/12/28 01:36:35;;;;;;;1.10;0.68;;;5.30;99.90;;;;;;4140930;28;20030;-70
2020/12/28 01:38:36;;;;;;;0.40;0.30;;;5.30;99.90;;;;;;4134371;28;20446;-70
2020/12/28 01:40:36;;;;;;;0.55;0.38;;;5.30;99.90;;;;;;4132026;28;20039;-70
2020/12/28 01:42:37;;;;;;;0.47;0.30;;;5.30;99.90;;;;;;4150698;28;20061;-70
2020/12/28 01:44:39;;;;;;;1.05;0.40;;;5.20;99.90;;;;;;4131564;28;20035;-70
2020/12/28 01:46:40;;;;;;;0.47;0.25;;;5.20;99.90;;;;;;4136504;28;20126;-70
2020/12/28 01:48:41;;;;;;;1.38;0.50;;;5.20;99.90;;;;;;4137335;28;20042;-70
2020/12/28 01:50:41;;;;;;;0.50;0.40;;;5.10;99.90;;;;;;4134819;28;22454;-70
2020/12/28 01:52:42;;;;;;;0.38;0.22;;;5.10;99.90;;;;;;4133952;28;20038;-70
2020/12/28 01:54:43;;;;;;;0.57;0.40;;;5.10;99.90;;;;;;4134624;28;20169;-70
2020/12/28 01:56:46;;;;;;;0.10;0.10;;;5.10;99.90;;;;;;4148364;28;20456;-70
2020/12/28 01:58:47;;;;;;;0.20;0.20;;;5.10;99.90;;;;;;4156861;28;20582;-70
2020/12/28 02:00:48;;;;;;;0.47;0.30;;;5.00;99.90;;;;;;4139588;28;20049;-70
2020/12/28 02:02:49;;;;;;;0.17;0.17;;;5.10;99.90;;;;;;4134561;28;20030;-70
2020/12/28 02:04:49;;;;;;;2.38;0.43;;;5.00;99.90;;;;;;4134254;28;20042;-70
2020/12/28 02:06:50;;;;;;;0.25;0.20;;;5.10;99.90;;;;;;4134884;28;20030;-70
2020/12/28 02:08:51;;;;;;;0.40;0.40;;;5.10;99.90;;;;;;4132326;28;20042;-70
2020/12/28 02:10:55;;;;;;;1.65;0.30;;;5.10;99.90;;;;;;4133452;28;20084;-70
2020/12/28 02:12:55;;;;;;;0.10;0.10;;;5.10;99.90;;;;;;4134409;28;20117;-70
2020/12/28 02:14:56;;;;;;;0.30;0.30;;;5.10;99.90;;;;;;4129315;28;20030;-70
2020/12/28 02:16:57;;;;;;;0.20;0.17;;;5.10;99.90;;;;;;4132611;28;20025;-70
2020/12/28 02:18:59;;;;;;;0.40;0.30;;;5.10;99.90;;;;;;4136493;28;20117;-70
2020/12/28 02:21:00;;;;;;;0.77;0.38;;;5.10;99.90;;;;;;4136334;28;20629;-70
2020/12/28 02:23:00;;;;;;;0.30;0.22;;;5.10;99.90;;;;;;4135733;28;20100;-70
2020/12/28 02:25:01;;;;;;;0.77;0.30;;;5.10;99.90;;;;;;4140122;28;20133;-70
2020/12/28 02:27:02;;;;;;;0.28;0.20;;;5.10;99.90;;;;;;4142249;28;20026;-70
2020/12/28 02:29:02;;;;;;;0.20;0.13;;;5.10;99.90;;;;;;4135212;28;20037;-70
2020/12/28 02:31:03;;;;;;;0.40;0.20;;;5.10;99.90;;;;;;4133916;28;20041;-70
2020/12/28 02:33:04;;;;;;;0.40;0.20;;;5.10;99.90;;;;;;4134025;28;20034;-70
2020/12/28 02:35:05;;;;;;;0.38;0.25;;;5.10;99.90;;;;;;4129828;28;20036;-70
2020/12/28 02:37:06;;;;;;;0.20;0.20;;;5.20;99.90;;;;;;4131307;28;20124;-70
2020/12/28 02:39:07;;;;;;;0.28;0.17;;;5.20;99.90;;;;;;4134588;28;20026;-70
2020/12/28 02:41:07;;;;;;;0.82;0.30;;;5.20;99.90;;;;;;4136891;28;20068;-70
2020/12/28 02:43:08;;;;;;;0.30;0.20;;;5.20;99.90;;;;;;4133739;28;20072;-70
2020/12/28 02:45:08;;;;;;;0.20;0.20;;;5.20;99.90;;;;;;4137231;28;20664;-70
2020/12/28 02:47:09;;;;;;;0.38;0.30;;;5.20;99.90;;;;;;4134181;28;20033;-70
2020/12/28 02:49:13;;;;;;;1.75;0.40;;;5.20;99.90;;;;;;4136612;28;20049;-70
2020/12/28 02:51:13;;;;;;;1.35;0.30;;;5.20;99.90;;;;;;4138737;28;20090;-70
2020/12/28 02:53:14;;;;;;;0.73;0.10;;;5.20;99.90;;;;;;4135073;28;20121;-70
2020/12/28 02:55:14;;;;;;;0.95;0.32;;;5.20;99.90;;;;;;4135435;28;20030;-70
2020/12/28 02:57:15;;;;;;;0.40;0.20;;;5.20;99.90;;;;;;4142336;28;20042;-70
2020/12/28 02:59:16;;;;;;;0.38;0.28;;;5.20;99.90;;;;;;4138800;28;20049;-70
2020/12/28 03:01:16;;;;;;;0.30;0.25;;;5.20;99.90;;;;;;4137078;28;20049;-70
2020/12/28 03:03:17;;;;;;;1.25;0.50;;;5.20;99.90;;;;;;4133954;28;20365;-70
2020/12/28 03:05:18;;;;;;;0.20;0.20;;;5.20;99.90;;;;;;4137374;28;20081;-70
2020/12/28 03:07:19;;;;;;;0.73;0.32;;;5.20;99.90;;;;;;4121111;28;20042;-70
2020/12/28 03:09:19;;;;;;;0.98;0.30;;;5.20;99.90;;;;;;4137893;28;20038;-70
2020/12/28 03:11:22;;;;;;;0.50;0.30;;;5.20;99.90;;;;;;4142992;28;20104;-70
2020/12/28 03:13:23;;;;;;;0.35;0.20;;;5.30;99.90;;;;;;4135801;28;20034;-70
2020/12/28 03:15:23;;;;;;;0.47;0.28;;;5.30;99.90;;;;;;4138017;28;20030;-70
2020/12/28 03:17:24;;;;;;;0.20;0.20;;;5.30;99.90;;;;;;4138913;28;20174;-70
2020/12/28 03:19:24;;;;;;;0.30;0.30;;;5.40;99.90;;;;;;4137177;28;20054;-70
2020/12/28 03:21:25;;;;;;;0.50;0.50;;;5.40;99.90;;;;;;4136903;28;20169;-70
2020/12/28 03:23:26;;;;;;;0.30;0.30;;;5.40;99.90;;;;;;4134655;28;20049;-70
2020/12/28 03:25:27;;;;;;;0.35;0.30;;;5.40;99.90;;;;;;4132688;28;20366;-70
2020/12/28 03:27:27;;;;;;;0.20;0.20;;;5.40;99.90;;;;;;4134453;28;20530;-70
2020/12/28 03:29:30;;;;;;;0.68;0.40;;;5.40;99.90;;;;;;4137964;28;20067;-70
2020/12/28 03:31:30;;;;;;;0.55;0.20;;;5.30;99.90;;;;;;4140445;28;20052;-70
2020/12/28 03:33:31;;;;;;;1.30;0.30;;;5.30;99.90;;;;;;4150993;28;20026;-70
2020/12/28 03:35:31;;;;;;;0.65;0.50;;;5.30;99.90;;;;;;4139681;28;20538;-70
2020/12/28 03:37:32;;;;;;;0.55;0.50;;;5.30;99.90;;;;;;4137253;28;20045;-70
2020/12/28 03:39:34;;;;;;;0.32;0.32;;;5.40;99.90;;;;;;4137403;28;20034;-70
2020/12/28 03:41:36;;;;;;;0.40;0.40;;;5.40;99.90;;;;;;4137369;28;20037;-70
2020/12/28 03:43:37;;;;;;;0.30;0.30;;;5.40;99.90;;;;;;4136667;28;20042;-70
2020/12/28 03:45:38;;;;;;;1.40;0.50;;;5.40;99.90;;;;;;4136433;28;20413;-70
2020/12/28 03:47:38;;;;;;;0.28;0.28;;;5.40;99.90;;;;;;4141248;28;20189;-70
2020/12/28 03:49:40;;;;;;;0.38;0.38;;;5.40;99.90;;;;;;4135800;28;20042;-70
2020/12/28 03:51:40;;;;;;;0.40;0.30;;;5.40;99.90;;;;;;4131770;28;20109;-70
2020/12/28 03:53:41;;;;;;;0.57;0.43;;;5.40;99.90;;;;;;4135629;28;20034;-70
2020/12/28 03:55:42;;;;;;;0.40;0.40;;;5.40;99.90;;;;;;4132209;28;20046;-70
2020/12/28 03:57:42;;;;;;;0.40;0.25;;;5.40;99.90;;;;;;4138457;28;20038;-70
2020/12/28 03:59:43;;;;;;;0.35;0.35;;;5.40;99.90;;;;;;4136174;28;20038;-70
2020/12/28 04:01:43;;;;;;;0.65;0.63;;;5.40;99.90;;;;;;4158050;28;20053;-70
2020/12/28 04:03:44;;;;;;;0.40;0.35;;;5.40;99.90;;;;;;4135679;28;20038;-70
2020/12/28 04:05:44;;;;;;;0.55;0.43;;;5.40;99.90;;;;;;4135548;28;20033;-70
2020/12/28 04:07:45;;;;;;;1.05;0.60;;;5.40;99.90;;;;;;4148035;28;20038;-70
2020/12/28 04:09:46;;;;;;;0.73;0.43;;;5.40;99.90;;;;;;4138077;28;20042;-70
2020/12/28 04:11:46;;;;;;;0.50;0.50;;;5.40;99.90;;;;;;4139483;28;20114;-70
2020/12/28 04:13:47;;;;;;;1.17;0.50;;;5.40;99.90;;;;;;4136190;28;20049;-70
2020/12/28 04:15:48;;;;;;;1.58;0.60;;;5.40;99.90;;;;;;4136396;28;20037;-70
2020/12/28 04:17:49;;;;;;;1.17;0.45;;;5.50;99.90;;;;;;4133272;28;20062;-70
2020/12/28 04:19:49;;;;;;;0.52;0.30;;;5.40;99.90;;;;;;4133343;28;20043;-70
2020/12/28 04:21:50;;;;;;;0.40;0.40;;;5.50;99.90;;;;;;4149835;28;20116;-70
2020/12/28 04:23:51;;;;;;;0.77;0.40;;;5.40;99.90;;;;;;4141575;28;20053;-70
2020/12/28 04:25:51;;;;;;;1.25;0.50;;;5.40;99.90;;;;;;4129890;28;20038;-70
2020/12/28 04:27:52;;;;;;;0.70;0.70;;;5.40;99.90;;;;;;4149085;28;20076;-70
2020/12/28 04:29:52;;;;;;;0.85;0.50;;;5.40;99.90;;;;;;4130736;28;20045;-70
2020/12/28 04:31:53;;;;;;;1.20;0.52;;;5.40;99.90;;;;;;4138858;28;20116;-70
2020/12/28 04:33:54;;;;;;;0.77;0.45;;;5.40;99.90;;;;;;4138028;28;20369;-70
2020/12/28 04:35:54;;;;;;;0.40;0.40;;;5.50;99.90;;;;;;4136087;28;20030;-71
2020/12/28 04:37:55;;;;;;;0.73;0.60;;;5.50;99.90;;;;;;4136645;28;20390;-71
2020/12/28 04:39:56;;;;;;;0.60;0.40;;;5.50;99.90;;;;;;4131976;28;20173;-70
2020/12/28 04:41:56;;;;;;;0.40;0.40;;;5.50;99.90;;;;;;4145322;28;20088;-70
2020/12/28 04:43:58;;;;;;;0.47;0.43;;;5.50;99.90;;;;;;4148553;28;20700;-70
2020/12/28 04:46:02;;;;;;;0.70;0.70;;;5.50;99.90;;;;;;4136637;28;20030;-70
2020/12/28 04:48:10;;;;;;;1.48;0.73;;;5.50;99.90;;;;;;4130431;28;20123;-70
2020/12/28 04:50:11;;;;;;;0.57;0.45;;;5.40;99.90;;;;;;4136149;28;20038;-70
2020/12/28 04:52:16;;;;;;;0.90;0.68;;;5.50;99.90;;;;;;4110927;28;20034;-70
2020/12/28 04:54:17;;;;;;;1.17;0.60;;;5.50;99.90;;;;;;4134735;28;20031;-70
2020/12/28 04:56:19;;;;;;;1.58;0.52;;;5.50;99.90;;;;;;4135806;28;20033;-70
2020/12/28 04:58:20;;;;;;;1.98;0.75;;;5.40;99.90;;;;;;4132205;28;20061;-70
2020/12/28 05:00:21;;;;;;;0.45;0.45;;;5.50;99.90;;;;;;4135340;28;20034;-70
2020/12/28 05:02:22;;;;;;;3.15;0.65;;;5.50;99.90;;;;;;4137219;28;20435;-70
2020/12/28 05:04:24;;;;;;;1.02;0.70;;;5.50;99.90;;;;;;4117346;28;20082;-70
2020/12/28 05:06:24;;;;;;;0.50;0.47;;;5.50;99.90;;;;;;4138754;28;20812;-70
2020/12/28 05:08:25;;;;;;;0.60;0.55;;;5.50;99.90;;;;;;4134410;28;20042;-70
2020/12/28 05:10:26;;;;;;;1.27;0.77;;;5.50;99.90;;;;;;4133411;28;20027;-70
2020/12/28 05:12:27;;;;;;;1.98;0.60;;;5.50;99.90;;;;;;4135185;28;20064;-70
2020/12/28 05:14:28;;;;;;;0.45;0.40;;;5.50;99.90;;;;;;4136237;28;20042;-70
2020/12/28 05:16:30;;;;;;;1.48;0.40;;;5.50;99.90;;;;;;4136243;28;20346;-70
2020/12/28 05:18:33;;;;;;;0.80;0.60;;;5.60;99.90;;;;;;4131125;28;20049;-70
2020/12/28 05:20:35;;;;;;;0.70;0.52;;;5.60;99.90;;;;;;4133608;28;20046;-70
2020/12/28 05:22:36;;;;;;;1.45;0.60;;;5.50;99.90;;;;;;4134425;28;20091;-70
2020/12/28 05:24:36;;;;;;;1.30;0.57;;;5.50;99.90;;;;;;4139562;28;20073;-70
2020/12/28 05:26:40;;;;;;;0.55;0.50;;;5.50;99.90;;;;;;4132601;28;20061;-71
2020/12/28 05:28:42;;;;;;;0.77;0.50;;;5.50;99.90;;;;;;4134774;28;20658;-71
2020/12/28 05:30:44;;;;;;;0.75;0.73;;;5.50;99.90;;;;;;4136674;28;20045;-70
2020/12/28 05:32:45;;;;;;;0.60;0.53;;;5.50;99.90;;;;;;4133374;28;20092;-70
2020/12/28 05:34:47;;;;;;;1.35;0.70;;;5.60;99.90;;;;;;4133915;28;20492;-70
2020/12/28 05:36:51;;;;;;;1.10;0.77;;;5.50;99.90;;;;;;4134063;28;20618;-70
2020/12/28 05:38:53;;;;;;;1.48;0.60;;;5.60;99.90;;;;;;4132987;28;20338;-70
2020/12/28 05:41:02;;;;;;;0.80;0.77;;;5.60;99.90;;;;;;4134274;28;20042;-70
2020/12/28 05:43:04;;;;;;;0.52;0.50;;;5.50;99.90;;;;;;4133061;28;20031;-70
2020/12/28 05:45:08;;;;;;;0.95;0.60;;;5.60;99.90;;;;;;4135744;28;20084;-70
2020/12/28 05:47:15;;;;;;;1.48;0.85;;;5.60;99.90;;;;;;4135245;28;20034;-71
2020/12/28 05:49:19;;;;;;;1.10;0.77;;;5.50;99.90;;;;;;4132898;28;20030;-70
2020/12/28 05:51:20;;;;;;;1.35;0.82;;;5.50;99.90;;;;;;4135851;28;20034;-70
2020/12/28 05:53:23;;;;;;;1.10;0.80;;;5.50;99.90;;;;;;4134879;28;20434;-70
2020/12/28 05:55:26;;;;;;;1.23;0.80;;;5.50;99.90;;;;;;4129786;28;20038;-71
2020/12/28 05:57:28;;;;;;;1.02;0.70;;;5.50;99.90;;;;;;4133242;28;20034;-70
2020/12/28 05:59:31;;;;;;;1.73;0.90;;;5.50;99.90;;;;;;4134540;28;20044;-70
2020/12/28 06:01:37;;;;;;;2.25;1.10;;;5.50;99.90;;;;;;4138689;28;20041;-70
2020/12/28 06:03:41;;;;;;;0.85;0.65;;;5.50;99.90;;;;;;4134232;28;20038;-70
2020/12/28 06:05:50;;;;;;;1.13;0.70;;;5.50;99.90;;;;;;4135652;28;20041;-71
2020/12/28 06:07:51;;;;;;;0.90;0.70;;;5.50;99.90;;;;;;4160462;28;20116;-70
2020/12/28 06:09:54;;;;;;;1.35;1.02;;;5.50;99.90;;;;;;4116808;28;20075;-70
2020/12/28 06:12:06;;;;;;;1.77;1.00;;;5.50;99.90;;;;;;4141731;28;20164;-71
2020/12/28 06:14:20;;;;;;;2.05;1.00;;;5.50;99.90;;;;;;4140448;28;20045;-71
2020/12/28 06:16:23;;;;;;;2.05;1.00;;;5.40;99.90;;;;;;4127741;28;20026;-71
2020/12/28 06:18:24;;;;;;;2.30;1.13;;;5.40;99.90;;;;;;4137858;28;20038;-71
2020/12/28 06:20:33;;;;;;;2.58;0.95;;;5.40;99.90;;;;;;4139069;28;20041;-71
2020/12/28 06:22:34;;;;;;;1.38;0.88;;;5.40;99.90;;;;;;4124130;28;20030;-70
2020/12/28 06:24:34;;;;;;;1.63;1.02;;;5.40;99.90;;;;;;4132799;28;20121;-70
2020/12/28 06:26:35;;;;;;;1.38;1.00;;;5.30;99.90;;;;;;4145803;28;20064;-71
2020/12/28 06:28:36;;;;;;;1.77;0.80;;;5.30;99.90;;;;;;4141024;28;20042;-70
2020/12/28 06:30:36;;;;;;;1.02;0.80;;;5.30;99.90;;;;;;4143990;28;20038;-71
2020/12/28 06:32:38;;;;;;;3.28;1.27;;;5.30;99.90;;;;;;4138946;28;20040;-71
2020/12/28 06:34:40;;;;;;;1.27;1.10;;;5.30;99.90;;;;;;4139483;28;20041;-71
2020/12/28 06:36:41;;;;;;;1.02;0.80;;;5.30;99.90;;;;;;4135332;28;20038;-71
2020/12/28 06:38:42;;;;;;;1.55;0.85;;;5.30;99.90;;;;;;4117334;28;20038;-70
2020/12/28 06:40:52;;;;;;;1.60;1.08;;;5.20;99.90;;;;;;4112556;28;20037;-70
2020/12/28 06:42:53;;;;;;;1.08;0.93;;;5.20;99.90;;;;;;4131529;28;20509;-70
2020/12/28 06:44:53;;;;;;;1.25;1.00;;;5.20;99.90;;;;;;4137902;28;20387;-70
2020/12/28 06:46:54;;;;;;;1.45;1.00;;;5.20;99.90;;;;;;4120358;28;20064;-70
2020/12/28 06:48:56;;;;;;;1.55;1.20;;;5.20;99.90;;;;;;4135037;28;20588;-70
2020/12/28 06:51:05;;;;;;;1.45;1.08;;;5.30;99.90;;;;;;4138088;28;20490;-69
2020/12/28 06:53:06;;;;;;;1.30;1.20;;;5.20;99.90;;;;;;4140815;28;20030;-68
2020/12/28 06:55:11;;;;;;;1.17;1.08;;;5.30;99.90;;;;;;4142488;28;20435;-69
2020/12/28 06:57:11;;;;;;;3.38;0.98;;;5.30;99.90;;;;;;4141615;28;20037;-69
2020/12/28 06:59:13;;;;;;;1.35;1.20;;;5.20;99.90;;;;;;4137676;28;20095;-69
2020/12/28 07:01:15;;;;;;;1.42;1.33;;;5.30;99.90;;;;;;4134767;28;20529;-69
2020/12/28 07:03:17;;;;;;;1.65;1.10;;;5.20;99.90;;;;;;4143842;28;20026;-69
2020/12/28 07:05:25;;;;;;;1.10;1.00;;;5.30;99.90;;;;;;4142847;28;20018;-69
2020/12/28 07:07:26;;;;;;;1.63;0.98;;;5.30;99.90;;;;;;4142610;28;20033;-69
2020/12/28 07:09:27;;;;;;;1.85;0.80;;;5.20;99.90;;;;;;4143276;28;20034;-69
2020/12/28 07:11:28;;;;;;;1.30;1.20;;;5.30;99.90;;;;;;4140833;28;20478;-69
2020/12/28 07:13:30;;;;;;;1.50;1.00;;;5.20;99.90;;;;;;4155455;28;20060;-69
2020/12/28 07:15:31;;;;;;;1.77;1.10;;;5.20;99.90;;;;;;4144273;28;20065;-69
2020/12/28 07:17:36;;;;;;;2.05;1.10;;;5.20;99.90;;;;;;4141864;28;20034;-69
2020/12/28 07:19:37;;;;;;;2.00;1.07;;;5.20;99.90;;;;;;4121341;28;20042;-69
2020/12/28 07:21:38;;;;;;;2.03;1.05;;;5.20;99.90;;;;;;4138178;28;20818;-69
2020/12/28 07:23:38;;;;;;;1.70;1.10;;;5.20;99.90;;;;;;4138407;28;20069;-69
2020/12/28 07:25:39;;;;;;;2.65;1.67;;;5.20;99.90;;;;;;4142737;28;20030;-69
2020/12/28 07:27:41;;;;;;;2.50;1.30;;;5.20;99.90;;;;;;4140319;28;20386;-69
2020/12/28 07:29:42;;;;;;;1.95;1.60;;;5.20;99.90;;;;;;4142731;28;20096;-69
2020/12/28 07:31:45;;;;;;;3.20;1.30;;;5.10;99.90;;;;;;4139645;28;20417;-69
2020/12/28 07:33:46;;;;;;;2.15;1.15;;;5.10;99.90;;;;;;4143274;28;20076;-69
2020/12/28 07:35:47;;;;;;;1.70;1.33;;;5.10;99.90;;;;;;4142441;28;20033;-69
2020/12/28 07:37:49;;;;;;;2.35;1.30;;;5.10;99.90;;;;;;4141779;28;20589;-69
2020/12/28 07:39:50;;;;;;;1.52;1.15;;;5.00;99.90;;;;;;4139767;28;20057;-69
2020/12/28 07:41:50;;;;;;;1.92;1.05;;;5.00;99.90;;;;;;4136922;28;20386;-69
2020/12/28 07:43:53;;;;;;;2.15;1.25;;;4.90;99.90;;;;;;4134972;28;20034;-69
2020/12/28 07:46:05;;;;;;;2.30;1.20;;;4.90;99.90;;;;;;4137460;28;20042;-70
2020/12/28 07:48:09;;;;;;;3.15;1.50;;;4.80;99.90;;;;;;4137393;28;20050;-70
2020/12/28 07:50:12;;;;;;;4.65;1.90;;;4.80;99.90;;;;;;4138782;28;20037;-70
2020/12/28 07:52:17;;;;;;;2.97;1.83;;;4.80;99.90;;;;;;4135894;28;20030;-70
2020/12/28 07:54:20;;;;;;;1.75;1.40;;;4.70;99.90;;;;;;4141656;28;20066;-70
2020/12/28 07:56:33;;;;;;;2.03;1.38;;;4.70;99.90;;;;;;4139724;28;20426;-70
2020/12/28 07:59:12;;;;;;;6.75;1.73;;;4.70;99.90;;;;;;4134936;28;20344;-70
2020/12/28 08:01:24;;;;;;;2.92;1.73;;;4.70;99.90;;;;;;4107494;28;20154;-71
2020/12/28 08:03:34;;;;;;;2.92;1.92;;;4.70;99.90;;;;;;4091279;28;20188;-70
2020/12/28 08:05:35;;;;;;;3.30;1.80;;;4.70;99.90;;;;;;4097301;28;20122;-70
2020/12/28 08:07:36;;;;;;;2.45;1.80;;;4.60;99.90;;;;;;4138458;28;20037;-70
2020/12/28 08:09:36;;;;;;;2.20;1.42;;;4.60;99.90;;;;;;4136219;28;20026;-70
2020/12/28 08:11:37;;;;;;;3.65;1.67;;;4.50;99.90;;;;;;4134181;28;20026;-70
2020/12/28 08:13:38;;;;;;;2.75;1.50;;;4.50;99.90;;;;;;4137907;28;20026;-70
2020/12/28 08:15:38;;;;;;;1.70;1.25;;;4.60;99.90;;;;;;4137504;28;20462;-70
2020/12/28 08:17:39;;;;;;;2.75;1.70;;;4.60;99.90;;;;;;4132847;28;20030;-70
2020/12/28 08:19:39;;;;;;;2.53;1.48;;;4.60;99.90;;;;;;4131530;28;20042;-70
2020/12/28 08:21:43;;;;;;;3.08;1.63;;;4.60;99.90;;;;;;4132610;28;20066;-70
2020/12/28 08:23:53;;;;;;;2.22;1.30;;;4.60;99.90;;;;;;4134813;28;20038;-70
2020/12/28 08:25:55;;;;;;;2.83;1.33;;;4.60;99.90;;;;;;4136245;28;20482;-70
2020/12/28 08:27:57;;;;;;;2.08;1.30;;;4.60;99.90;;;;;;4135996;28;20351;-70
2020/12/28 08:29:59;;;;;;;2.63;1.60;;;4.60;99.90;;;;;;4134625;28;20117;-70
2020/12/28 08:32:00;;;;;;;1.70;1.27;;;4.70;99.90;;;;;;4136937;28;20032;-70
2020/12/28 08:34:07;;;;;;;2.30;1.52;;;4.70;99.90;;;;;;4137238;28;20458;-70
2020/12/28 08:36:08;;;;;;;1.60;1.30;;;4.70;99.90;;;;;;4151234;28;20388;-70
2020/12/28 08:38:09;;;;;;;2.03;1.35;;;4.80;99.90;;;;;;4133820;28;20038;-70
2020/12/28 08:40:18;;;;;;;2.92;1.52;;;4.80;99.90;;;;;;4136064;28;20113;-70
2020/12/28 08:42:29;;;;;;;2.78;1.55;;;4.80;99.90;;;;;;4137407;28;20545;-70
2020/12/28 08:44:38;;;;;;;1.63;1.23;;;4.80;99.90;;;;;;4151729;28;20038;-70
2020/12/28 08:46:39;;;;;;;1.98;1.17;;;4.80;99.90;;;;;;4126669;28;20072;-70
2020/12/28 08:48:47;;;;;;;2.13;1.75;;;4.80;99.90;;;;;;4135930;28;20026;-70
2020/12/28 08:50:47;;;;;;;2.67;1.45;;;4.80;99.90;;;;;;4136501;28;21009;-70
2020/12/28 08:52:50;;;;;;;2.88;1.50;;;4.80;99.90;;;;;;4137423;28;20045;-70
2020/12/28 08:54:56;;;;;;;2.22;1.35;;;4.80;99.90;;;;;;4142020;28;20378;-70
2020/12/28 08:56:57;;;;;;;1.90;1.35;;;4.90;99.90;;;;;;4135752;28;20050;-70
2020/12/28 08:59:04;;;;;;;1.88;1.33;;;4.90;99.90;;;;;;4132313;28;20037;-71
2020/12/28 09:01:05;;;;;;;3.83;1.63;;;4.90;99.90;;;;;;4138794;28;20041;-71
2020/12/28 09:03:08;;;;;;;3.90;2.00;;;4.90;99.90;;;;;;4140674;28;20046;-71
2020/12/28 09:05:09;;;;;;;5.75;2.75;;;4.90;99.90;;;;;;4141255;28;20033;-71
2020/12/28 09:07:10;;;;;;;5.80;2.60;;;4.90;99.90;;;;;;4140802;28;20046;-71
2020/12/28 09:09:13;;;;;;;5.32;2.40;;;4.90;99.90;;;;;;4141426;28;20033;-71
2020/12/28 09:11:14;;;;;;;4.15;1.95;;;4.90;99.90;;;;;;4139022;28;20060;-71
2020/12/28 09:13:15;;;;;;;3.75;2.10;;;4.90;99.90;;;;;;4137614;28;20468;-71
2020/12/28 09:15:15;;;;;;;5.80;1.85;;;4.80;99.90;;;;;;4130726;28;20122;-71
2020/12/28 09:17:16;;;;;;;2.65;1.30;;;4.80;99.90;;;;;;4132705;28;20038;-70
2020/12/28 09:19:17;;;;;;;2.70;1.55;;;4.80;99.90;;;;;;4134490;28;20038;-70
2020/12/28 09:21:17;;;;;;;5.32;1.52;;;4.80;99.90;;;;;;4138292;28;20030;-70
2020/12/28 09:23:18;;;;;;;1.92;1.20;;;4.70;99.90;;;;;;4142393;28;20566;-70
2020/12/28 09:25:19;;;;;;;5.00;1.58;;;4.70;99.90;;;;;;4136088;28;20033;-70
2020/12/28 09:27:20;;;;;;;4.03;1.42;;;4.70;99.90;;;;;;4155269;28;20071;-70
2020/12/28 09:29:20;;;;;;;2.50;1.30;;;4.70;99.90;;;;;;4137739;28;20437;-70
2020/12/28 09:31:21;;;;;;;2.47;1.00;;;4.80;99.90;;;;;;4134514;28;20081;-70
2020/12/28 09:33:22;;;;;;;3.28;1.40;;;4.80;99.90;;;;;;4131647;28;20034;-70
2020/12/28 09:35:22;;;;;;;3.80;1.40;;;4.80;99.90;;;;;;4137943;28;20053;-70
2020/12/28 09:37:23;;;;;;;2.55;1.35;;;4.80;99.90;;;;;;4137447;28;20033;-70
2020/12/28 09:39:23;;;;;;;6.88;1.35;;;4.90;99.90;;;;;;4142368;28;20026;-70
2020/12/28 09:41:25;;;;;;;5.93;1.42;;;4.90;99.90;;;;;;4140016;28;20546;-70
2020/12/28 09:43:25;;;;;;;1.52;1.13;;;5.00;99.90;;;;;;4141726;28;20049;-70
2020/12/28 09:45:36;;;;;;;2.78;1.38;;;5.00;99.90;;;;;;4137066;28;20502;-70
2020/12/28 09:47:36;;;;;;;3.85;1.23;;;5.10;99.90;;;;;;4138461;28;20038;-70
2020/12/28 09:49:37;;;;;;;5.13;1.58;;;5.20;99.90;;;;;;4138682;28;20042;-70
2020/12/28 09:51:38;;;;;;;3.30;1.60;;;5.30;99.90;;;;;;4136769;28;20031;-70
2020/12/28 09:53:39;;;;;;;2.10;1.45;;;5.50;99.90;;;;;;4139447;28;20038;-70
2020/12/28 09:55:40;;;;;;;1.50;1.15;;;5.60;99.90;;;;;;4136447;28;20665;-70
2020/12/28 09:57:41;;;;;;;2.67;1.00;;;5.70;99.90;;;;;;4140751;28;20026;-70
2020/12/28 09:59:41;;;;;;;2.72;0.85;;;5.80;99.90;;;;;;4138063;28;20410;-71
2020/12/28 10:01:43;;;;;;;6.05;1.40;;;5.90;99.90;;;;;;4138489;28;20049;-71
2020/12/28 10:03:44;;;;;;;1.75;1.00;;;6.00;99.90;;;;;;4134204;28;20069;-71
2020/12/28 10:05:45;;;;;;;3.72;1.20;;;6.10;99.90;;;;;;4140304;28;20034;-71
2020/12/28 10:07:45;;;;;;;2.95;1.05;;;6.20;99.90;;;;;;4133043;28;20044;-71
2020/12/28 10:09:46;;;;;;;3.28;0.80;;;6.20;99.90;;;;;;4134371;28;20114;-70
2020/12/28 10:11:47;;;;;;;2.88;0.98;;;6.30;99.90;;;;;;4137385;28;20056;-71
2020/12/28 10:13:47;;;;;;;2.90;0.93;;;6.40;99.90;;;;;;4136835;28;20034;-70
2020/12/28 10:15:48;;;;;;;3.38;1.30;;;6.40;99.90;;;;;;4132290;28;20644;-71
2020/12/28 10:18:13;;;;;;;1.77;1.00;;;6.50;99.90;;;;;;4134835;28;20041;-71
2020/12/28 10:20:14;;;;;;;8.07;1.30;;;6.50;99.90;;;;;;4139408;28;20053;-71
2020/12/28 10:22:14;;;;;;;3.80;0.85;;;6.60;99.90;;;;;;4134983;28;20054;-71
2020/12/28 10:24:15;;;;;;;2.85;1.10;;;6.60;99.90;;;;;;4138328;28;20089;-71
2020/12/28 10:26:21;;;;;;;3.90;1.42;;;6.60;99.90;;;;;;4137332;28;20077;-71
2020/12/28 10:28:23;;;;;;;2.58;0.95;;;6.70;99.90;;;;;;4138122;28;20479;-71
2020/12/28 10:30:23;;;;;;;3.53;1.10;;;6.70;99.90;;;;;;4138202;28;20038;-70
2020/12/28 10:32:24;;;;;;;5.30;1.60;;;6.60;99.90;;;;;;4139234;28;20035;-71
2020/12/28 10:34:26;;;;;;;4.15;1.45;;;6.60;99.90;;;;;;4135046;28;20039;-71
2020/12/28 10:36:29;;;;;;;1.47;0.90;;;6.60;99.90;;;;;;4147253;28;20080;-71
2020/12/28 10:38:30;;;;;;;2.00;1.05;;;6.60;99.90;;;;;;4131462;28;20069;-71
2020/12/28 10:40:31;;;;;;;3.80;0.95;;;6.60;99.90;;;;;;4131782;28;20042;-71
2020/12/28 10:42:32;;;;;;;3.33;1.33;;;6.60;99.90;;;;;;4132297;28;20035;-70
2020/12/28 10:44:32;;;;;;;1.23;0.60;;;6.60;99.90;;;;;;4132309;28;20042;-71